Time;durP1;ratioP1;P1;durP2;ratioP2;P2;SDS_P1;SDS_P2;PMS_P1;PMS_P2;Temp;Humidity;BMP_temperature;BMP_pressure;BME280_temperature;BME280_humidity;BME280_pressure;Samples;Min_cycle;Max_cycle;Signal;HPM_P1;HPM_P2
2021/06/14 00:00:13;;;;;;;;;;;;;;;22.89;40.50;99476.50;5132055;27;19960;-38
2021/06/14 00:02:39;;;;;;;;;;;;;;;22.94;40.17;99471.03;5132591;27;19938;-37
2021/06/14 00:05:05;;;;;;;;;;;;;;;22.93;40.19;99471.31;5132937;27;20394;-36
2021/06/14 00:07:30;;;;;;;;;;;;;;;22.88;40.12;99457.81;5132471;27;20367;-37
2021/06/14 00:09:55;;;;;;;;;;;;;;;22.95;39.85;99453.63;5132596;27;19922;-37
2021/06/14 00:12:21;;;;;;;;;;;;;;;22.97;39.86;99451.44;5132344;27;19950;-37
2021/06/14 00:14:49;;;;;;;;;;;;;;;22.88;40.49;99449.69;5132161;27;20010;-37
2021/06/14 00:17:15;;;;;;;;;;;;;;;22.77;40.92;99447.09;5132635;27;19923;-38
2021/06/14 00:19:40;;;;;;;;;;;;;;;22.83;41.18;99447.84;5113861;27;19915;-37
2021/06/14 00:22:05;;;;;;;;;;;;;;;22.84;41.27;99444.03;5131983;27;20018;-36
2021/06/14 00:24:31;;;;;;;;;;;;;;;22.61;41.71;99441.06;5132146;27;19975;-37
2021/06/14 00:26:56;;;;;;;;;;;;;;;22.44;42.08;99438.03;5150256;27;20273;-37
2021/06/14 00:29:21;;;;;;;;;;;;;;;22.49;42.11;99439.88;5153222;27;19912;-37
2021/06/14 00:31:46;;;;;;;;;;;;;;;22.39;42.32;99438.06;5153476;27;20363;-37
2021/06/14 00:34:12;;;;;;;;;;;;;;;22.42;41.71;99434.78;5153277;27;19926;-37
2021/06/14 00:36:37;;;;;;;;;;;;;;;22.60;41.08;99434.03;5134644;27;20370;-37
2021/06/14 00:39:03;;;;;;;;;;;;;;;22.46;41.95;99435.81;5153150;27;19917;-37
2021/06/14 00:41:28;;;;;;;;;;;;;;;22.33;42.28;99434.66;5117495;27;19974;-38
2021/06/14 00:43:53;;;;;;;;;;;;;;;22.12;42.19;99433.22;5153349;27;19921;-38
2021/06/14 00:46:18;;;;;;;;;;;;;;;21.81;43.23;99426.19;5152997;27;19949;-38
2021/06/14 00:48:44;;;;;;;;;;;;;;;21.78;43.35;99431.38;5153113;27;19911;-37
2021/06/14 00:51:09;;;;;;;;;;;;;;;22.06;42.35;99430.53;5152974;27;19921;-38
2021/06/14 00:53:38;;;;;;;;;;;;;;;21.72;43.10;99425.19;5153099;27;19976;-36
2021/06/14 00:56:05;;;;;;;;;;;;;;;22.00;42.43;99420.06;5151346;27;20036;-37
2021/06/14 00:58:30;;;;;;;;;;;;;;;21.98;42.27;99424.97;5152031;27;19911;-37
2021/06/14 01:00:56;;;;;;;;;;;;;;;21.54;43.38;99429.44;5152960;27;20329;-36
2021/06/14 01:03:21;;;;;;;;;;;;;;;21.03;44.32;99432.47;5153142;27;20290;-36
2021/06/14 01:05:47;;;;;;;;;;;;;;;21.35;43.28;99423.84;5152733;27;19911;-37
2021/06/14 01:08:13;;;;;;;;;;;;;;;20.69;45.57;99427.78;5152627;27;19915;-37
2021/06/14 01:10:38;;;;;;;;;;;;;;;20.82;44.53;99423.66;5152430;27;19922;-38
2021/06/14 01:13:27;;;;;;;;;;;;;;;20.50;45.24;99423.00;5152572;27;19972;-36
2021/06/14 01:15:53;;;;;;;;;;;;;;;20.13;45.71;99431.47;5152347;27;20405;-37
2021/06/14 01:18:18;;;;;;;;;;;;;;;20.83;44.49;99430.72;5152677;27;19915;-37
2021/06/14 01:20:58;;;;;;;;;;;;;;;20.43;44.87;99427.88;5152614;27;19967;-38
2021/06/14 01:23:30;;;;;;;;;;;;;;;20.72;45.01;99435.34;5111445;28;20072;-37
2021/06/14 01:25:59;;;;;;;;;;;;;;;21.22;43.11;99436.13;5093298;28;19955;-38
2021/06/14 01:28:24;;;;;;;;;;;;;;;21.13;43.83;99434.28;5093041;28;19912;-39
2021/06/14 01:30:50;;;;;;;;;;;;;;;21.10;43.91;99438.38;5093024;28;20000;-37
2021/06/14 01:33:16;;;;;;;;;;;;;;;20.94;44.60;99431.44;5111301;28;19953;-38
2021/06/14 01:35:49;;;;;;;;;;;;;;;20.03;46.44;99431.50;5111246;28;19923;-38
2021/06/14 01:38:14;;;;;;;;;;;;;;;19.73;49.01;99438.56;5111488;28;20000;-38
2021/06/14 01:40:40;;;;;;;;;;;;;;;20.03;49.63;99443.13;5093459;28;19946;-37
2021/06/14 01:43:10;;;;;;;;;;;;;;;20.33;50.34;99441.41;5111387;28;20367;-39
2021/06/14 01:45:36;;;;;;;;;;;;;;;19.96;52.16;99448.00;5110950;28;19911;-39
2021/06/14 01:48:01;;;;;;;;;;;;;;;19.94;52.66;99450.16;5098877;28;19919;-39
2021/06/14 01:50:28;;;;;;;;;;;;;;;19.75;53.30;99449.09;5131379;28;19923;-38
2021/06/14 01:52:53;;;;;;;;;;;;;;;19.87;53.41;99446.91;5113117;28;20432;-39
2021/06/14 01:55:19;;;;;;;;;;;;;;;19.81;53.99;99445.31;5131550;28;19923;-38
2021/06/14 01:57:44;;;;;;;;;;;;;;;19.92;53.26;99442.31;5112991;28;19911;-38
2021/06/14 02:00:10;;;;;;;;;;;;;;;20.28;53.28;99446.84;5112984;28;19919;-38
2021/06/14 02:02:36;;;;;;;;;;;;;;;20.47;53.84;99450.56;5131637;28;20425;-37
2021/06/14 02:05:01;;;;;;;;;;;;;;;20.48;53.22;99438.66;5112970;28;20311;-37
2021/06/14 02:07:26;;;;;;;;;;;;;;;20.69;53.00;99436.72;5131486;28;19911;-37
2021/06/14 02:09:52;;;;;;;;;;;;;;;20.68;53.24;99443.19;5113223;28;19911;-37
2021/06/14 02:12:17;;;;;;;;;;;;;;;20.68;53.01;99437.00;5113263;28;19919;-37
2021/06/14 02:14:43;;;;;;;;;;;;;;;20.53;53.06;99432.44;5112849;28;19992;-38
2021/06/14 02:17:09;;;;;;;;;;;;;;;20.38;53.38;99422.47;5131226;28;19919;-38
2021/06/14 02:19:38;;;;;;;;;;;;;;;20.47;52.78;99428.94;5131347;28;19915;-38
2021/06/14 02:22:03;;;;;;;;;;;;;;;20.58;52.52;99418.91;5131622;27;20011;-38
2021/06/14 02:24:28;;;;;;;;;;;;;;;20.64;51.96;99425.94;5135385;27;19918;-38
2021/06/14 02:26:54;;;;;;;;;;;;;;;20.30;52.37;99407.66;5134629;27;20277;-37
2021/06/14 02:29:19;;;;;;;;;;;;;;;20.44;52.61;99423.28;5135341;27;19917;-37
2021/06/14 02:31:44;;;;;;;;;;;;;;;19.97;52.68;99433.41;5135027;27;20320;-38
2021/06/14 02:34:09;;;;;;;;;;;;;;;20.16;52.57;99439.03;5134660;27;20333;-38
2021/06/14 02:36:35;;;;;;;;;;;;;;;20.22;52.10;99429.84;5134607;27;19912;-38
2021/06/14 02:39:06;;;;;;;;;;;;;;;20.13;52.80;99441.50;5134677;27;20002;-38
2021/06/14 02:41:31;;;;;;;;;;;;;;;20.21;52.75;99440.91;5134430;27;19912;-38
2021/06/14 02:43:56;;;;;;;;;;;;;;;20.24;52.73;99433.06;5134442;27;20351;-38
2021/06/14 02:46:22;;;;;;;;;;;;;;;20.11;52.93;99434.44;5116088;27;19911;-38
2021/06/14 02:48:47;;;;;;;;;;;;;;;20.00;55.44;99437.47;5134125;27;20377;-38
2021/06/14 02:51:12;;;;;;;;;;;;;;;20.32;52.91;99437.09;5115632;27;19968;-37
2021/06/14 02:53:38;;;;;;;;;;;;;;;20.45;52.26;99438.41;5115705;27;19954;-37
2021/06/14 02:56:13;;;;;;;;;;;;;;;20.79;52.19;99443.97;5115962;27;19969;-38
2021/06/14 02:58:38;;;;;;;;;;;;;;;20.80;53.44;99450.97;5147054;27;20371;-37
2021/06/14 03:01:04;;;;;;;;;;;;;;;20.69;53.06;99439.44;5155091;27;19918;-37
2021/06/14 03:03:30;;;;;;;;;;;;;;;21.22;50.04;99441.53;5154953;27;19922;-38
2021/06/14 03:05:55;;;;;;;;;;;;;;;21.14;51.12;99439.44;5154859;27;19911;-37
2021/06/14 03:08:20;;;;;;;;;;;;;;;21.28;50.59;99445.84;5136428;27;20419;-37
2021/06/14 03:10:46;;;;;;;;;;;;;;;21.11;50.50;99439.19;5136098;27;19921;-38
2021/06/14 03:13:11;;;;;;;;;;;;;;;21.45;48.04;99442.75;5154914;27;20100;-37
2021/06/14 03:15:36;;;;;;;;;;;;;;;21.33;48.42;99438.78;5154494;27;19950;-37
2021/06/14 03:18:01;;;;;;;;;;;;;;;20.61;49.39;99442.69;5135061;27;19911;-37
2021/06/14 03:20:27;;;;;;;;;;;;;;;20.73;48.96;99442.34;5154339;27;19911;-36
2021/06/14 03:22:52;;;;;;;;;;;;;;;20.84;48.94;99446.63;5119010;27;20006;-38
2021/06/14 03:25:18;;;;;;;;;;;;;;;20.46;48.85;99440.81;5133847;27;19950;-38
2021/06/14 03:27:43;;;;;;;;;;;;;;;20.26;48.92;99433.59;5115345;27;19972;-38
2021/06/14 03:30:09;;;;;;;;;;;;;;;20.25;48.87;99434.69;5115255;27;20005;-38
2021/06/14 03:32:34;;;;;;;;;;;;;;;20.43;48.72;99435.19;5133708;27;19911;-38
2021/06/14 03:34:59;;;;;;;;;;;;;;;20.38;49.08;99427.88;5115044;27;20342;-36
2021/06/14 03:37:26;;;;;;;;;;;;;;;20.11;50.21;99439.06;5133824;27;19915;-37
2021/06/14 03:39:51;;;;;;;;;;;;;;;19.92;49.60;99433.41;5133549;27;20002;-36
2021/06/14 03:42:18;;;;;;;;;;;;;;;19.71;50.72;99433.41;5132816;27;19958;-38
2021/06/14 03:44:43;;;;;;;;;;;;;;;19.70;50.63;99436.38;5133481;27;19911;-37
2021/06/14 03:47:08;;;;;;;;;;;;;;;19.26;51.34;99412.63;5133602;27;19972;-37
2021/06/14 03:49:34;;;;;;;;;;;;;;;19.29;51.63;99428.28;5133169;27;19998;-37
2021/06/14 03:51:59;;;;;;;;;;;;;;;19.24;51.43;99430.97;5133334;27;19911;-37
2021/06/14 03:54:24;;;;;;;;;;;;;;;19.40;50.93;99426.38;5133214;27;20302;-38
2021/06/14 03:56:49;;;;;;;;;;;;;;;19.47;51.48;99424.25;5132547;27;20361;-38
2021/06/14 03:59:15;;;;;;;;;;;;;;;19.01;52.05;99435.00;5134263;27;19961;-38
2021/06/14 04:01:40;;;;;;;;;;;;;;;19.21;53.71;99429.63;5132896;27;20291;-38
2021/06/14 04:04:17;;;;;;;;;;;;;;;19.66;51.16;99427.19;5132753;27;19911;-37
2021/06/14 04:06:43;;;;;;;;;;;;;;;19.68;51.64;99425.03;5132650;27;19932;-37
2021/06/14 04:09:08;;;;;;;;;;;;;;;19.80;50.25;99432.88;5132696;27;20010;-37
2021/06/14 04:11:33;;;;;;;;;;;;;;;19.83;50.42;99433.16;5133057;27;19911;-37
2021/06/14 04:13:59;;;;;;;;;;;;;;;19.85;52.79;99428.28;5132342;27;19918;-37
2021/06/14 04:16:24;;;;;;;;;;;;;;;20.27;51.07;99429.81;5131839;27;19972;-37
2021/06/14 04:18:49;;;;;;;;;;;;;;;20.46;50.26;99430.00;5131465;27;20006;-38
2021/06/14 04:21:15;;;;;;;;;;;;;;;20.72;49.81;99432.66;5131636;27;20302;-37
2021/06/14 04:23:40;;;;;;;;;;;;;;;21.22;47.88;99427.22;5131801;27;20272;-37
2021/06/14 04:26:05;;;;;;;;;;;;;;;21.30;48.09;99429.31;5131241;27;19918;-38
2021/06/14 04:28:31;;;;;;;;;;;;;;;21.81;49.14;99426.19;5112621;27;19972;-38
2021/06/14 04:30:56;;;;;;;;;;;;;;;22.25;46.14;99432.56;5111236;28;19922;-38
2021/06/14 04:33:21;;;;;;;;;;;;;;;22.32;45.36;99429.50;5110895;28;19951;-38
2021/06/14 04:35:47;;;;;;;;;;;;;;;22.85;44.45;99437.50;5118226;27;20002;-37
2021/06/14 04:38:12;;;;;;;;;;;;;;;22.87;44.47;99438.03;5131068;27;19915;-38
2021/06/14 04:40:37;;;;;;;;;;;;;;;22.92;44.58;99434.41;5131278;27;20299;-38
2021/06/14 04:43:02;;;;;;;;;;;;;;;22.91;44.64;99441.75;5131192;27;19950;-38
2021/06/14 04:45:28;;;;;;;;;;;;;;;22.62;45.07;99439.97;5130550;27;19911;-37
2021/06/14 04:47:53;;;;;;;;;;;;;;;23.10;43.67;99443.72;5112837;27;19912;-37
2021/06/14 04:50:19;;;;;;;;;;;;;;;23.19;42.74;99448.19;5130758;27;19911;-38
2021/06/14 04:52:44;;;;;;;;;;;;;;;22.29;43.16;99436.28;5129512;27;19922;-37
2021/06/14 04:55:09;;;;;;;;;;;;;;;22.54;43.22;99439.81;5130803;27;19921;-37
2021/06/14 04:57:35;;;;;;;;;;;;;;;23.03;42.96;99446.78;5130940;27;20014;-38
2021/06/14 05:00:00;;;;;;;;;;;;;;;23.51;42.45;99440.34;5139728;27;19911;-38
2021/06/14 05:02:25;;;;;;;;;;;;;;;23.60;41.08;99439.38;5133533;27;19911;-37
2021/06/14 05:04:50;;;;;;;;;;;;;;;23.75;40.58;99434.78;5151708;27;19975;-37
2021/06/14 05:07:16;;;;;;;;;;;;;;;23.29;41.05;99441.78;5151942;27;19922;-37
2021/06/14 05:09:41;;;;;;;;;;;;;;;23.73;40.25;99448.66;5152272;27;19994;-38
2021/06/14 05:12:06;;;;;;;;;;;;;;;23.86;39.77;99447.13;5151834;27;19995;-37
2021/06/14 05:14:32;;;;;;;;;;;;;;;24.50;38.18;99447.28;5151262;27;19923;-37
2021/06/14 05:16:57;;;;;;;;;;;;;;;24.82;37.53;99445.53;5152027;27;19922;-38
2021/06/14 05:19:22;;;;;;;;;;;;;;;25.61;35.79;99446.19;5151698;27;19932;-37
2021/06/14 05:21:48;;;;;;;;;;;;;;;25.58;35.83;99449.56;5143812;27;19911;-37
2021/06/14 05:24:13;;;;;;;;;;;;;;;25.70;36.03;99447.88;5131216;28;19912;-38
2021/06/14 05:26:38;;;;;;;;;;;;;;;25.11;35.85;99447.06;5131416;28;20025;-37
2021/06/14 05:29:03;;;;;;;;;;;;;;;25.90;35.08;99448.47;5131138;28;19911;-38
2021/06/14 05:31:29;;;;;;;;;;;;;;;25.09;36.50;99450.13;5130679;28;20051;-37
2021/06/14 05:33:54;;;;;;;;;;;;;;;25.09;36.76;99446.56;5131037;28;19943;-37
2021/06/14 05:36:19;;;;;;;;;;;;;;;25.24;36.92;99443.53;5131018;28;19952;-37
2021/06/14 05:38:45;;;;;;;;;;;;;;;26.16;35.81;99442.34;5130931;28;19995;-37
2021/06/14 05:41:10;;;;;;;;;;;;;;;27.25;33.71;99447.91;5131095;28;19912;-36
2021/06/14 05:43:35;;;;;;;;;;;;;;;26.60;34.00;99440.56;5130966;28;19957;-38
2021/06/14 05:46:00;;;;;;;;;;;;;;;26.68;33.94;99446.06;5131096;28;19918;-37
2021/06/14 05:48:26;;;;;;;;;;;;;;;26.64;34.30;99445.09;5131003;28;20047;-38
2021/06/14 05:50:51;;;;;;;;;;;;;;;26.01;35.05;99440.81;5131106;28;20221;-38
2021/06/14 05:53:16;;;;;;;;;;;;;;;26.38;35.15;99446.91;5130739;28;20427;-39
2021/06/14 05:55:42;;;;;;;;;;;;;;;26.79;34.50;99443.84;5130659;28;20014;-37
2021/06/14 05:58:07;;;;;;;;;;;;;;;27.02;34.33;99438.25;5132704;27;20002;-37
2021/06/14 06:00:33;;;;;;;;;;;;;;;27.55;33.52;99439.03;5134740;27;19911;-37
2021/06/14 06:02:59;;;;;;;;;;;;;;;27.21;33.25;99438.72;5134607;27;20323;-37
2021/06/14 06:05:24;;;;;;;;;;;;;;;27.80;32.17;99429.97;5134715;27;19953;-38
2021/06/14 06:07:49;;;;;;;;;;;;;;;28.16;31.99;99436.13;5134632;27;19967;-37
2021/06/14 06:10:15;;;;;;;;;;;;;;;28.84;31.26;99423.25;5134368;27;20263;-39
2021/06/14 06:12:40;;;;;;;;;;;;;;;29.44;29.91;99434.84;5133592;27;20057;-38
2021/06/14 06:15:09;;;;;;;;;;;;;;;29.15;30.16;99432.19;5133352;27;19923;-37
2021/06/14 06:17:35;;;;;;;;;;;;;;;29.15;30.20;99429.44;5133307;27;19911;-37
2021/06/14 06:20:00;;;;;;;;;;;;;;;27.85;30.60;99429.00;5133645;27;20299;-38
2021/06/14 06:22:25;;;;;;;;;;;;;;;28.72;30.05;99434.09;5133623;27;19961;-38
2021/06/14 06:24:51;;;;;;;;;;;;;;;29.08;29.41;99434.66;5133567;27;19918;-37
2021/06/14 06:27:16;;;;;;;;;;;;;;;28.75;30.16;99430.72;5133588;27;20452;-38
2021/06/14 06:29:41;;;;;;;;;;;;;;;28.05;31.40;99428.31;5133785;27;19912;-38
2021/06/14 06:32:07;;;;;;;;;;;;;;;28.59;30.07;99427.72;5133451;27;20357;-37
2021/06/14 06:34:32;;;;;;;;;;;;;;;28.54;30.42;99429.84;5133113;27;19923;-38
2021/06/14 06:36:57;;;;;;;;;;;;;;;29.15;30.18;99424.78;5131841;27;20442;-38
2021/06/14 06:39:23;;;;;;;;;;;;;;;29.25;29.64;99429.06;5113136;28;19953;-38
2021/06/14 06:41:48;;;;;;;;;;;;;;;28.98;30.10;99431.19;5126556;27;20761;-37
2021/06/14 06:44:13;;;;;;;;;;;;;;;28.69;29.60;99432.00;5122293;27;19920;-38
2021/06/14 06:46:38;;;;;;;;;;;;;;;28.56;30.36;99431.16;5129609;27;19947;-38
2021/06/14 06:49:04;;;;;;;;;;;;;;;26.96;31.77;99423.13;5134641;27;20379;-38
2021/06/14 06:51:29;;;;;;;;;;;;;;;27.76;31.36;99426.31;5133651;27;20247;-38
2021/06/14 06:54:13;;;;;;;;;;;;;;;28.77;30.36;99430.34;5133568;27;20279;-38
2021/06/14 06:56:39;;;;;;;;;;;;;;;28.62;30.02;99426.28;5133528;27;19915;-38
2021/06/14 06:59:04;;;;;;;;;;;;;;;28.92;28.95;99424.31;5133738;27;19946;-38
2021/06/14 07:01:30;;;;;;;;;;;;;;;28.39;28.87;99425.75;5133660;27;19958;-37
2021/06/14 07:03:55;;;;;;;;;;;;;;;28.73;30.13;99418.47;5133317;27;19919;-38
2021/06/14 07:06:20;;;;;;;;;;;;;;;29.53;27.47;99412.84;5132379;27;19968;-37
2021/06/14 07:08:45;;;;;;;;;;;;;;;29.69;27.72;99418.44;5131858;27;19911;-38
2021/06/14 07:11:11;;;;;;;;;;;;;;;29.58;26.79;99418.06;5133499;27;19912;-39
2021/06/14 07:13:36;;;;;;;;;;;;;;;29.18;27.36;99407.66;5133297;27;19919;-38
2021/06/14 07:16:01;;;;;;;;;;;;;;;27.20;30.11;99418.00;5133130;27;20287;-38
2021/06/14 07:18:26;;;;;;;;;;;;;;;28.57;27.93;99407.31;5133214;27;19915;-37
2021/06/14 07:20:52;;;;;;;;;;;;;;;29.33;27.68;99408.19;5133380;27;19998;-38
2021/06/14 07:23:17;;;;;;;;;;;;;;;29.45;26.43;99408.22;5133062;27;20363;-38
2021/06/14 07:25:42;;;;;;;;;;;;;;;29.78;26.44;99405.47;5132838;27;19912;-38
2021/06/14 07:28:08;;;;;;;;;;;;;;;29.10;27.09;99396.78;5133605;27;19911;-38
2021/06/14 07:30:33;;;;;;;;;;;;;;;28.96;27.15;99407.97;5133366;27;19931;-38
2021/06/14 07:32:58;;;;;;;;;;;;;;;28.66;26.64;99397.91;5133329;27;19931;-38
2021/06/14 07:35:24;;;;;;;;;;;;;;;29.29;26.68;99397.09;5133128;27;19915;-37
2021/06/14 07:37:49;;;;;;;;;;;;;;;29.75;25.78;99388.91;5133206;27;19911;-38
2021/06/14 07:40:14;;;;;;;;;;;;;;;29.94;25.19;99393.84;5133036;27;19911;-38
2021/06/14 07:42:40;;;;;;;;;;;;;;;29.21;25.29;99387.84;5132940;27;19911;-38
2021/06/14 07:45:06;;;;;;;;;;;;;;;30.17;25.41;99383.22;5132817;27;20096;-38
2021/06/14 07:47:31;;;;;;;;;;;;;;;30.51;24.68;99389.38;5138401;27;19911;-37
2021/06/14 07:49:56;;;;;;;;;;;;;;;30.00;25.00;99389.72;5132206;27;20382;-38
2021/06/14 07:52:21;;;;;;;;;;;;;;;30.44;24.38;99384.47;5130644;27;20002;-38
2021/06/14 07:54:47;;;;;;;;;;;;;;;29.84;25.26;99378.66;5132197;27;20387;-38
2021/06/14 07:57:12;;;;;;;;;;;;;;;29.75;25.68;99366.97;5132564;27;19919;-38
2021/06/14 07:59:37;;;;;;;;;;;;;;;29.80;25.77;99373.03;5132444;27;19922;-38
2021/06/14 08:02:03;;;;;;;;;;;;;;;29.67;24.45;99368.66;5132522;27;20293;-37
2021/06/14 08:04:28;;;;;;;;;;;;;;;29.26;24.39;99375.06;5132418;27;19912;-38
2021/06/14 08:06:53;;;;;;;;;;;;;;;29.41;24.08;99360.72;5132389;27;19930;-38
2021/06/14 08:09:21;;;;;;;;;;;;;;;28.12;26.15;99367.66;5132560;27;19917;-37
2021/06/14 08:11:47;;;;;;;;;;;;;;;28.59;26.25;99377.69;5132396;27;20445;-38
2021/06/14 08:14:12;;;;;;;;;;;;;;;29.00;25.46;99374.13;5132226;27;19912;-36
2021/06/14 08:16:44;;;;;;;;;;;;;;;29.18;24.70;99369.31;5132683;27;19961;-37
2021/06/14 08:19:13;;;;;;;;;;;;;;;28.37;24.87;99370.53;5132581;27;20007;-37
2021/06/14 08:27:16;;;;;;;;;;;;;;;27.90;25.43;99381.59;5132084;27;20056;-38
2021/06/14 08:29:42;;;;;;;;;;;;;;;27.49;25.93;99386.47;5132541;27;20001;-39
2021/06/14 08:32:07;;;;;;;;;;;;;;;26.84;26.85;99378.16;5132138;27;19934;-37
2021/06/14 08:34:32;;;;;;;;;;;;;;;26.94;27.67;99379.78;5131664;27;19972;-38
2021/06/14 08:36:57;;;;;;;;;;;;;;;26.77;26.61;99369.69;5113923;27;20010;-39
2021/06/14 08:39:23;;;;;;;;;;;;;;;27.47;26.87;99364.97;5132226;27;20006;-38
2021/06/14 08:41:48;;;;;;;;;;;;;;;28.30;24.58;99364.81;5114381;27;20387;-37
2021/06/14 08:44:13;;;;;;;;;;;;;;;27.99;25.02;99358.53;5112824;28;19915;-38
2021/06/14 08:46:39;;;;;;;;;;;;;;;27.66;26.01;99377.44;5111336;27;19912;-36
2021/06/14 08:49:05;;;;;;;;;;;;;;;27.57;26.77;99363.81;5153085;27;19911;-38
2021/06/14 08:51:30;;;;;;;;;;;;;;;26.90;26.92;99359.69;5152998;27;19911;-37
2021/06/14 08:53:55;;;;;;;;;;;;;;;27.04;27.02;99368.53;5151863;27;19990;-38
2021/06/14 08:56:25;;;;;;;;;;;;;;;26.40;27.18;99360.91;5152513;27;20009;-38
2021/06/14 08:58:50;;;;;;;;;;;;;;;26.65;27.17;99367.56;5151873;27;19933;-40
2021/06/14 09:01:16;;;;;;;;;;;;;;;26.82;27.58;99364.03;5152160;27;19911;-39
2021/06/14 09:03:41;;;;;;;;;;;;;;;26.19;27.71;99358.00;5152309;27;19915;-38
2021/06/14 09:06:06;;;;;;;;;;;;;;;25.59;29.46;99362.06;5152003;27;20346;-38
2021/06/14 09:08:32;;;;;;;;;;;;;;;25.59;29.60;99362.06;5152374;27;20113;-38
2021/06/14 09:10:57;;;;;;;;;;;;;;;25.73;29.74;99353.78;5152022;27;19915;-38
2021/06/14 09:13:26;;;;;;;;;;;;;;;26.44;29.60;99361.09;5152288;27;20014;-38
2021/06/14 09:16:12;;;;;;;;;;;;;;;25.98;29.57;99352.31;5151807;27;19923;-37
2021/06/14 09:18:38;;;;;;;;;;;;;;;26.45;30.32;99349.88;5152097;27;19911;-39
2021/06/14 09:21:07;;;;;;;;;;;;;;;26.39;28.85;99353.06;5151053;27;19915;-39
2021/06/14 09:23:41;;;;;;;;;;;;;;;24.84;30.74;99358.97;5131335;28;19919;-38
2021/06/14 09:26:07;;;;;;;;;;;;;;;23.82;35.22;99372.75;5131133;28;19942;-39
2021/06/14 09:28:32;;;;;;;;;;;;;;;23.46;32.73;99375.28;5113034;28;20539;-42
2021/06/14 09:30:59;;;;;;;;;;;;;;;24.01;35.15;99380.84;5132131;27;19918;-42
2021/06/14 09:33:25;;;;;;;;;;;;;;;24.40;33.66;99371.34;5136264;27;19912;-38
2021/06/14 09:35:51;;;;;;;;;;;;;;;25.18;33.23;99373.94;5135277;27;19938;-38
2021/06/14 09:38:17;;;;;;;;;;;;;;;25.30;33.75;99376.97;5135566;27;19969;-38
2021/06/14 09:40:46;;;;;;;;;;;;;;;24.25;35.25;99360.78;5135467;27;19916;-39
2021/06/14 09:43:31;;;;;;;;;;;;;;;24.29;36.01;99359.06;5135581;27;19918;-39
2021/06/14 09:45:56;;;;;;;;;;;;;;;24.46;37.94;99366.59;5135128;27;19912;-39
2021/06/14 09:48:23;;;;;;;;;;;;;;;24.84;40.94;99372.56;5131117;27;20020;-39
2021/06/14 09:50:49;;;;;;;;;;;;;;;25.16;41.46;99366.09;5156298;27;19918;-39
2021/06/14 09:53:15;;;;;;;;;;;;;;;25.44;40.12;99373.38;5156064;27;19912;-39
2021/06/14 09:55:41;;;;;;;;;;;;;;;25.28;39.83;99373.72;5155343;27;20354;-38
2021/06/14 09:58:25;;;;;;;;;;;;;;;25.08;39.15;99368.75;5137412;27;19912;-38
2021/06/14 10:00:57;;;;;;;;;;;;;;;25.20;40.21;99363.56;5155755;27;19990;-39
2021/06/14 10:03:26;;;;;;;;;;;;;;;25.21;38.87;99356.19;5155499;27;19911;-37
2021/06/14 10:05:52;;;;;;;;;;;;;;;24.15;38.02;99364.50;5155446;27;19910;-37
2021/06/14 10:08:25;;;;;;;;;;;;;;;24.88;38.57;99365.38;5155490;27;20002;-38
2021/06/14 10:10:58;;;;;;;;;;;;;;;25.71;37.62;99362.28;5155466;27;19911;-37
2021/06/14 10:13:25;;;;;;;;;;;;;;;25.58;32.88;99363.16;5154739;27;19966;-38
2021/06/14 10:15:51;;;;;;;;;;;;;;;25.77;33.61;99365.66;5136720;27;19934;-37
2021/06/14 10:18:18;;;;;;;;;;;;;;;25.86;32.44;99371.16;5112768;28;19915;-38
2021/06/14 10:20:43;;;;;;;;;;;;;;;26.36;33.07;99373.59;5110756;28;19911;-38
2021/06/14 10:23:09;;;;;;;;;;;;;;;26.30;33.76;99366.69;5126871;27;19916;-38
2021/06/14 10:25:34;;;;;;;;;;;;;;;26.34;32.01;99370.38;5134732;27;19917;-38
2021/06/14 10:28:01;;;;;;;;;;;;;;;26.78;31.45;99362.28;5134482;27;19911;-38
2021/06/14 10:30:26;;;;;;;;;;;;;;;26.69;29.72;99357.63;5134053;27;19911;-37
2021/06/14 10:32:52;;;;;;;;;;;;;;;26.79;29.58;99355.69;5133842;27;19939;-38
2021/06/14 10:35:18;;;;;;;;;;;;;;;27.14;30.19;99351.03;5133789;27;19927;-38
2021/06/14 10:37:47;;;;;;;;;;;;;;;27.56;29.35;99350.47;5115843;27;19950;-36
2021/06/14 10:40:30;;;;;;;;;;;;;;;27.62;29.32;99352.69;5133845;27;19943;-38
2021/06/14 10:42:56;;;;;;;;;;;;;;;27.48;26.13;99354.84;5135281;27;20328;-36
2021/06/14 10:45:26;;;;;;;;;;;;;;;27.38;27.23;99349.69;5154875;27;19915;-38
2021/06/14 10:47:52;;;;;;;;;;;;;;;27.01;28.91;99344.59;5144323;27;19911;-36
2021/06/14 10:50:21;;;;;;;;;;;;;;;27.76;26.84;99338.84;5133957;27;19968;-37
2021/06/14 10:52:47;;;;;;;;;;;;;;;28.11;26.83;99341.41;5134085;27;19911;-38
2021/06/14 10:55:13;;;;;;;;;;;;;;;28.04;28.79;99335.66;5133934;27;19915;-38
2021/06/14 10:57:38;;;;;;;;;;;;;;;27.58;26.33;99332.63;5133756;27;20028;-37
2021/06/14 11:00:17;;;;;;;;;;;;;;;27.59;26.32;99334.22;5133982;27;20263;-38
2021/06/14 11:02:59;;;;;;;;;;;;;;;27.61;27.61;99336.66;5133258;27;19919;-37
2021/06/14 11:05:28;;;;;;;;;;;;;;;26.66;27.75;99330.97;5134414;27;19924;-36
2021/06/14 11:07:53;;;;;;;;;;;;;;;26.43;27.04;99319.38;5154069;27;19980;-38
2021/06/14 11:10:22;;;;;;;;;;;;;;;27.18;26.11;99315.69;5154049;27;19911;-38
2021/06/14 11:12:48;;;;;;;;;;;;;;;27.36;30.40;99328.19;5154273;27;19919;-37
2021/06/14 11:15:13;;;;;;;;;;;;;;;27.19;28.49;99318.09;5134500;27;19934;-38
2021/06/14 11:17:39;;;;;;;;;;;;;;;28.13;28.26;99311.81;5112696;28;19915;-38
2021/06/14 11:20:04;;;;;;;;;;;;;;;28.66;24.93;99315.78;5112288;28;19912;-37
2021/06/14 11:22:48;;;;;;;;;;;;;;;28.00;23.89;99312.84;5126267;27;20402;-37
2021/06/14 11:25:33;;;;;;;;;;;;;;;27.22;24.31;99308.44;5133095;27;20004;-37
2021/06/14 11:27:59;;;;;;;;;;;;;;;27.03;25.17;99303.31;5132880;27;19922;-38
2021/06/14 11:30:28;;;;;;;;;;;;;;;27.27;24.16;99300.09;5133445;27;20383;-38
2021/06/14 11:32:53;;;;;;;;;;;;;;;27.77;25.15;99298.63;5136004;27;19992;-37
2021/06/14 11:35:19;;;;;;;;;;;;;;;28.05;26.44;99313.47;5132899;27;20002;-39
2021/06/14 11:37:45;;;;;;;;;;;;;;;26.76;26.81;99304.50;5114530;27;19915;-38
2021/06/14 11:40:11;;;;;;;;;;;;;;;27.28;26.16;99307.97;5132960;27;19919;-38
2021/06/14 11:42:43;;;;;;;;;;;;;;;27.24;25.28;99306.97;5132494;27;20401;-38
2021/06/14 11:45:09;;;;;;;;;;;;;;;27.17;25.79;99298.50;5133131;27;19915;-37
2021/06/14 11:47:38;;;;;;;;;;;;;;;26.50;25.65;99297.06;5141180;27;20005;-38
2021/06/14 11:50:06;;;;;;;;;;;;;;;26.84;25.26;99287.31;5153381;27;19911;-37
2021/06/14 11:52:35;;;;;;;;;;;;;;;26.99;24.78;99288.72;5153302;27;20374;-44
2021/06/14 11:55:03;;;;;;;;;;;;;;;27.72;25.24;99279.66;5152177;27;19995;-38
2021/06/14 11:57:29;;;;;;;;;;;;;;;27.08;26.59;99278.59;5153280;27;19986;-38
2021/06/14 11:59:55;;;;;;;;;;;;;;;25.89;28.49;99277.88;5153352;27;19911;-37
2021/06/14 12:02:21;;;;;;;;;;;;;;;24.91;31.80;99283.16;5152830;27;20298;-37
2021/06/14 12:04:50;;;;;;;;;;;;;;;25.61;31.03;99280.00;5151408;27;20021;-37
2021/06/14 12:07:25;;;;;;;;;;;;;;;25.01;30.84;99287.53;5138367;27;19915;-37
2021/06/14 12:09:50;;;;;;;;;;;;;;;24.63;32.11;99289.81;5136246;27;19919;-37
2021/06/14 12:12:15;;;;;;;;;;;;;;;24.71;32.39;99287.19;5119038;27;19930;-38
2021/06/14 12:14:40;;;;;;;;;;;;;;;24.84;31.74;99280.06;5140407;27;19955;-38
2021/06/14 12:17:06;;;;;;;;;;;;;;;25.08;32.99;99282.47;5110313;27;19938;-38
2021/06/14 12:19:32;;;;;;;;;;;;;;;25.32;32.16;99284.06;5143070;27;19923;-38
2021/06/14 12:21:58;;;;;;;;;;;;;;;24.66;31.11;99270.97;5144923;27;20443;-37
2021/06/14 12:24:23;;;;;;;;;;;;;;;24.51;30.55;99269.41;5129944;27;19951;-37
2021/06/14 12:26:49;;;;;;;;;;;;;;;24.81;32.48;99264.38;5107697;27;20010;-37
2021/06/14 12:29:20;;;;;;;;;;;;;;;24.59;32.01;99267.88;5121901;27;20311;-37
2021/06/14 12:31:46;;;;;;;;;;;;;;;24.20;30.33;99277.44;5137556;27;19924;-37
2021/06/14 12:34:11;;;;;;;;;;;;;;;24.32;30.64;99268.75;5143703;27;19923;-37
2021/06/14 12:36:36;;;;;;;;;;;;;;;24.88;30.35;99259.28;5152898;27;19922;-37
2021/06/14 12:39:02;;;;;;;;;;;;;;;25.48;30.58;99273.56;5134282;27;19979;-37
2021/06/14 12:41:27;;;;;;;;;;;;;;;25.36;29.63;99272.25;5151506;27;20367;-36
2021/06/14 12:43:53;;;;;;;;;;;;;;;25.45;30.04;99271.47;5134597;27;19987;-36
2021/06/14 12:46:19;;;;;;;;;;;;;;;25.04;29.28;99277.97;5152808;27;20006;-37
2021/06/14 12:48:45;;;;;;;;;;;;;;;25.44;29.33;99283.50;5137007;27;19946;-37